Terminal Aerodrome Forecast
Issued by NWS

Home | Current Version | Previous Version | Text Only | Print | Product List | Glossary On
Versions: 1 2 3 4 5 6 7 8 9 10 11 12 13 14 15 16 17 18 19
000
FTUS43 KJKL 310800 AAA
TAFSJS
TAF AMD
KSJS 310817Z 3108/0106 15005KT 6SM BR BKN040 OVC080
     FM311500 19002KT 6SM -SHRA BR VCTS OVC025CB
     FM010000 19003KT P6SM SCT025 OVC050=

USA.gov is the U.S. government's official web portal to all federal, state and local government web resources and services.